Terminal Aerodrome Forecast
Issued by NWS

Home | Current Version | Previous Version | Text Only | Print | Product List | Glossary On
Versions: 1 2 3 4 5 6 7 8 9 10 11 12 13 14 15 16 17 18 19 20 21 22
000
FTUS43 KAPX 021732
TAFPLN
TAF
KPLN 021732Z 0218/0318 30012G23KT P6SM SCT035
     FM022100 28012KT P6SM SKC
     FM030000 00000KT P6SM SKC
     FM030900 16009KT P6SM OVC080
     FM031400 16011KT 1 1/2SM -SN OVC015=

USA.gov is the U.S. government's official web portal to all federal, state and local government web resources and services.